Time;durP1;ratioP1;P1;durP2;ratioP2;P2;SDS_P1;SDS_P2;PMS_P1;PMS_P2;Temp;Humidity;BMP_temperature;BMP_pressure;BME280_temperature;BME280_humidity;BME280_pressure;Samples;Min_cycle;Max_cycle;Signal;HPM_P1;HPM_P2
2022/08/16 00:00:40;;;;;;;10.23;6.07;;;;;;;;;;5044945;28;20393;-48
2022/08/16 00:03:06;;;;;;;8.65;5.95;;;;;;;;;;5046923;28;20029;-47
2022/08/16 00:05:32;;;;;;;9.65;6.05;;;;;;;;;;5044458;28;20057;-46
2022/08/16 00:07:58;;;;;;;9.10;6.22;;;;;;;;;;5044979;28;20041;-45
2022/08/16 00:10:27;;;;;;;6.72;5.88;;;;;;;;;;5047220;28;20025;-45
2022/08/16 00:12:53;;;;;;;7.72;6.28;;;;;;;;;;5042694;28;20485;-46
2022/08/16 00:15:23;;;;;;;10.68;7.18;;;;;;;;;;5042017;28;20043;-45
2022/08/16 00:17:49;;;;;;;11.27;6.68;;;;;;;;;;5044912;28;20064;-45
2022/08/16 00:20:15;;;;;;;7.50;5.90;;;;;;;;;;5045503;28;20080;-46
2022/08/16 00:22:42;;;;;;;7.93;5.60;;;;;;;;;;5045558;28;20029;-46
2022/08/16 00:25:14;;;;;;;10.02;6.85;;;;;;;;;;5045951;28;20075;-46
2022/08/16 00:27:40;;;;;;;;;;;;;;;;;;5041358;28;20044;-46
2022/08/16 00:30:07;;;;;;;10.80;5.65;;;;;;;;;;5043642;28;19916;-46
2022/08/16 00:32:33;;;;;;;13.23;6.65;;;;;;;;;;5045838;28;20049;-45
2022/08/16 00:34:59;;;;;;;10.60;5.95;;;;;;;;;;5042404;28;20065;-47
2022/08/16 00:37:25;;;;;;;6.55;5.95;;;;;;;;;;5041164;28;20033;-47
2022/08/16 00:39:53;;;;;;;7.15;6.25;;;;;;;;;;5043205;28;20020;-49
2022/08/16 00:42:19;;;;;;;8.63;5.97;;;;;;;;;;5027831;28;20067;-45
2022/08/16 00:44:53;;;;;;;8.55;6.00;;;;;;;;;;5046092;28;20028;-46
2022/08/16 00:47:22;;;;;;;7.32;6.22;;;;;;;;;;5045406;28;20024;-46
2022/08/16 00:49:48;;;;;;;10.27;6.10;;;;;;;;;;5042892;28;20021;-46
2022/08/16 00:52:14;;;;;;;7.70;6.13;;;;;;;;;;5042969;28;20035;-45
2022/08/16 00:54:40;;;;;;;9.07;7.20;;;;;;;;;;5043464;28;20053;-48
2022/08/16 00:57:06;;;;;;;11.02;6.90;;;;;;;;;;5046506;28;20028;-46
2022/08/16 00:59:36;;;;;;;7.38;6.60;;;;;;;;;;5046126;28;20052;-47
2022/08/16 01:02:05;;;;;;;9.70;6.95;;;;;;;;;;5041446;28;20032;-46
2022/08/16 01:04:31;;;;;;;11.07;6.78;;;;;;;;;;5044599;28;20083;-51
2022/08/16 01:07:00;;;;;;;10.15;6.75;;;;;;;;;;5043843;28;20035;-45
2022/08/16 01:09:26;;;;;;;8.20;7.13;;;;;;;;;;5044869;28;20032;-48
2022/08/16 01:11:51;;;;;;;7.65;6.85;;;;;;;;;;5045040;28;20116;-45
2022/08/16 01:14:22;;;;;;;9.32;7.13;;;;;;;;;;5042795;28;20037;-45
2022/08/16 01:16:50;;;;;;;11.18;7.30;;;;;;;;;;5041645;28;20028;-46
2022/08/16 01:19:46;;;;;;;7.72;6.80;;;;;;;;;;5050035;28;20043;-48
2022/08/16 01:22:46;;;;;;;10.50;7.47;;;;;;;;;;5045941;28;20037;-45
2022/08/16 01:25:19;;;;;;;8.93;7.47;;;;;;;;;;5048120;28;20029;-45
2022/08/16 01:27:51;;;;;;;8.80;6.70;;;;;;;;;;5049107;28;20028;-45
2022/08/16 01:30:22;;;;;;;10.38;7.43;;;;;;;;;;5046633;28;20045;-48
2022/08/16 01:32:50;;;;;;;9.43;6.80;;;;;;;;;;5048103;28;20029;-41
2022/08/16 01:35:26;;;;;;;10.13;7.32;;;;;;;;;;5050065;28;20029;-45
2022/08/16 01:37:54;;;;;;;15.73;7.57;;;;;;;;;;5047827;28;20103;-46
2022/08/16 01:40:26;;;;;;;8.50;7.47;;;;;;;;;;5047346;28;20083;-47
2022/08/16 01:42:53;;;;;;;10.10;7.82;;;;;;;;;;5047600;28;20037;-45
2022/08/16 01:45:19;;;;;;;9.43;7.32;;;;;;;;;;5048682;28;20037;-48
2022/08/16 01:47:47;;;;;;;11.52;7.50;;;;;;;;;;5045636;28;20021;-45
2022/08/16 01:50:12;;;;;;;10.02;7.55;;;;;;;;;;5045511;28;20480;-49
2022/08/16 01:52:40;;;;;;;19.95;7.50;;;;;;;;;;5048228;28;20040;-45
2022/08/16 01:55:08;;;;;;;10.57;7.53;;;;;;;;;;5048319;28;20495;-46
2022/08/16 01:57:34;;;;;;;11.60;8.05;;;;;;;;;;5046062;28;20025;-49
2022/08/16 02:00:01;;;;;;;9.65;7.43;;;;;;;;;;5046854;28;20028;-46
2022/08/16 02:02:28;;;;;;;13.38;7.30;;;;;;;;;;5043362;28;20029;-47
2022/08/16 02:04:55;;;;;;;10.98;7.40;;;;;;;;;;5048000;28;20495;-49
2022/08/16 02:07:21;;;;;;;11.57;7.90;;;;;;;;;;5046749;28;20025;-49
2022/08/16 02:09:47;;;;;;;11.38;7.57;;;;;;;;;;5043299;28;20373;-45
2022/08/16 02:12:15;;;;;;;10.15;7.20;;;;;;;;;;5045741;28;20025;-43
2022/08/16 02:14:41;;;;;;;12.10;7.65;;;;;;;;;;5047102;28;20025;-47
2022/08/16 02:17:10;;;;;;;7.75;7.05;;;;;;;;;;5043055;28;20040;-46
2022/08/16 02:19:41;;;;;;;11.50;7.68;;;;;;;;;;5044718;28;20025;-45
2022/08/16 02:22:10;;;;;;;11.82;7.40;;;;;;;;;;5047184;28;20071;-45
2022/08/16 02:24:38;;;;;;;8.98;7.18;;;;;;;;;;5046690;28;20140;-45
2022/08/16 02:27:04;;;;;;;7.70;6.90;;;;;;;;;;5044343;28;20416;-46
2022/08/16 02:29:30;;;;;;;9.05;7.32;;;;;;;;;;5048349;28;20162;-47
2022/08/16 02:31:56;;;;;;;8.85;7.30;;;;;;;;;;5046264;28;20412;-47
2022/08/16 02:34:21;;;;;;;9.05;7.10;;;;;;;;;;5045923;28;20021;-48
2022/08/16 02:36:48;;;;;;;11.32;7.72;;;;;;;;;;5043468;28;20037;-47
2022/08/16 02:39:15;;;;;;;13.15;7.40;;;;;;;;;;5045256;28;20029;-46
2022/08/16 02:41:44;;;;;;;11.57;6.85;;;;;;;;;;5045130;28;20377;-45
2022/08/16 02:44:11;;;;;;;11.95;7.75;;;;;;;;;;5047551;28;20033;-48
2022/08/16 02:46:38;;;;;;;8.73;6.85;;;;;;;;;;5046413;28;20044;-46
2022/08/16 02:49:05;;;;;;;9.07;6.88;;;;;;;;;;5046006;28;20060;-49
2022/08/16 02:51:32;;;;;;;9.23;6.82;;;;;;;;;;5046248;28;20426;-48
2022/08/16 02:53:58;;;;;;;13.18;6.88;;;;;;;;;;5048970;28;20167;-47
2022/08/16 02:56:24;;;;;;;10.07;6.90;;;;;;;;;;5046633;28;20052;-49
2022/08/16 02:58:51;;;;;;;9.68;7.55;;;;;;;;;;5045063;28;20705;-46
2022/08/16 03:01:23;;;;;;;10.60;7.00;;;;;;;;;;5046720;28;20029;-50
2022/08/16 03:03:49;;;;;;;;;;;;;;;;;;5045844;28;20037;-49
2022/08/16 03:06:19;;;;;;;10.45;6.93;;;;;;;;;;5047080;28;20431;-47
2022/08/16 03:08:45;;;;;;;9.55;7.00;;;;;;;;;;5045207;28;20032;-47
2022/08/16 03:11:11;;;;;;;15.55;7.28;;;;;;;;;;5046577;28;20489;-49
2022/08/16 03:13:38;;;;;;;8.73;7.25;;;;;;;;;;5045365;28;20043;-49
2022/08/16 03:16:04;;;;;;;10.63;7.57;;;;;;;;;;5044997;28;20033;-47
2022/08/16 03:18:30;;;;;;;7.43;6.53;;;;;;;;;;5046765;28;20524;-46
2022/08/16 03:20:58;;;;;;;11.27;6.82;;;;;;;;;;5045031;28;20029;-46
2022/08/16 03:23:24;;;;;;;8.98;6.60;;;;;;;;;;5045514;28;20039;-50
2022/08/16 03:25:50;;;;;;;17.60;7.28;;;;;;;;;;5044390;28;20029;-46
2022/08/16 03:28:16;;;;;;;7.25;6.53;;;;;;;;;;5046121;28;20029;-48
2022/08/16 03:30:42;;;;;;;9.93;6.22;;;;;;;;;;5042950;28;20025;-47
2022/08/16 03:33:08;;;;;;;9.55;6.93;;;;;;;;;;5046482;28;20033;-49
2022/08/16 03:35:39;;;;;;;8.60;6.80;;;;;;;;;;5046602;28;20061;-46
2022/08/16 03:38:08;;;;;;;10.95;7.75;;;;;;;;;;5043239;28;20040;-50
2022/08/16 03:40:35;;;;;;;12.27;6.85;;;;;;;;;;5045662;28;20579;-48
2022/08/16 03:43:04;;;;;;;9.25;7.28;;;;;;;;;;5046351;28;20032;-46
2022/08/16 03:45:32;;;;;;;11.25;7.47;;;;;;;;;;5043159;28;20021;-51
2022/08/16 03:47:58;;;;;;;7.63;6.88;;;;;;;;;;5046198;28;20027;-51
2022/08/16 03:50:25;;;;;;;13.90;6.93;;;;;;;;;;5042921;28;20072;-51
2022/08/16 03:52:50;;;;;;;9.75;7.13;;;;;;;;;;5044144;28;20658;-45
2022/08/16 03:55:16;;;;;;;11.13;6.88;;;;;;;;;;5045176;28;20041;-48
2022/08/16 03:57:42;;;;;;;10.25;7.07;;;;;;;;;;5044362;28;20384;-52
2022/08/16 04:00:12;;;;;;;10.48;7.15;;;;;;;;;;5046217;28;20025;-51
2022/08/16 04:02:40;;;;;;;10.05;7.00;;;;;;;;;;5046750;28;20116;-45
2022/08/16 04:05:07;;;;;;;11.57;7.10;;;;;;;;;;5044838;28;20028;-47
2022/08/16 04:07:32;;;;;;;12.60;6.97;;;;;;;;;;5046554;28;20029;-51
2022/08/16 04:09:58;;;;;;;7.82;7.00;;;;;;;;;;5044675;28;20078;-46
2022/08/16 04:12:24;;;;;;;7.90;7.13;;;;;;;;;;5043119;28;20037;-45
2022/08/16 04:14:49;;;;;;;8.02;7.07;;;;;;;;;;5044905;28;20013;-46
2022/08/16 04:17:16;;;;;;;9.68;7.28;;;;;;;;;;5046633;28;20033;-47
2022/08/16 04:19:43;;;;;;;8.68;7.38;;;;;;;;;;5040120;28;20473;-47
2022/08/16 04:22:10;;;;;;;11.05;7.05;;;;;;;;;;5044150;28;20029;-47
2022/08/16 04:24:36;;;;;;;11.02;7.20;;;;;;;;;;5044173;28;20028;-48
2022/08/16 04:27:03;;;;;;;7.88;6.50;;;;;;;;;;5040746;28;20021;-46
2022/08/16 04:29:29;;;;;;;15.75;6.97;;;;;;;;;;5040734;28;20040;-45
2022/08/16 04:31:54;;;;;;;7.05;6.45;;;;;;;;;;5043703;28;20674;-53
2022/08/16 04:34:20;;;;;;;10.48;6.57;;;;;;;;;;5045642;28;20045;-46
2022/08/16 04:36:47;;;;;;;7.32;6.63;;;;;;;;;;5044542;28;20033;-45
2022/08/16 04:39:13;;;;;;;10.23;6.90;;;;;;;;;;5044291;28;20033;-46
2022/08/16 04:41:39;;;;;;;9.15;7.00;;;;;;;;;;5041708;28;20500;-48
2022/08/16 04:44:05;;;;;;;9.68;6.70;;;;;;;;;;5043813;28;20025;-45
2022/08/16 04:46:31;;;;;;;12.82;7.60;;;;;;;;;;5044498;28;20196;-46
2022/08/16 04:48:56;;;;;;;9.95;6.82;;;;;;;;;;5042147;28;20029;-45
2022/08/16 04:51:22;;;;;;;8.90;6.55;;;;;;;;;;5042551;28;20428;-45
2022/08/16 04:53:48;;;;;;;9.65;6.28;;;;;;;;;;5045076;28;20025;-46
2022/08/16 04:56:16;;;;;;;17.02;6.88;;;;;;;;;;5042954;28;20063;-47
2022/08/16 04:58:42;;;;;;;8.18;5.70;;;;;;;;;;5044996;28;20032;-46
2022/08/16 05:01:08;;;;;;;8.35;6.25;;;;;;;;;;5043771;28;20025;-45
2022/08/16 05:03:33;;;;;;;12.18;6.63;;;;;;;;;;5044868;28;20502;-43
2022/08/16 05:05:59;;;;;;;9.68;6.68;;;;;;;;;;5041770;28;20031;-46
2022/08/16 05:08:26;;;;;;;11.20;6.28;;;;;;;;;;5027233;28;20041;-45
2022/08/16 05:10:52;;;;;;;7.72;5.78;;;;;;;;;;5043136;28;20434;-49
2022/08/16 05:13:18;;;;;;;11.43;6.85;;;;;;;;;;5044615;28;20035;-48
2022/08/16 05:15:45;;;;;;;6.80;5.95;;;;;;;;;;5042150;28;20413;-45
2022/08/16 05:18:12;;;;;;;8.73;5.90;;;;;;;;;;5045329;28;20025;-46
2022/08/16 05:20:39;;;;;;;9.48;6.57;;;;;;;;;;5043777;28;20033;-46
2022/08/16 05:23:04;;;;;;;9.95;5.88;;;;;;;;;;5041253;28;20025;-47
2022/08/16 05:25:30;;;;;;;12.35;6.55;;;;;;;;;;5044789;28;20025;-45
2022/08/16 05:27:58;;;;;;;7.13;5.95;;;;;;;;;;5043596;28;20115;-47
2022/08/16 05:30:24;;;;;;;6.90;6.20;;;;;;;;;;5044524;28;20791;-48
2022/08/16 05:32:50;;;;;;;7.53;5.82;;;;;;;;;;5043533;28;20025;-46
2022/08/16 05:35:17;;;;;;;10.60;5.90;;;;;;;;;;5044855;28;20200;-45
2022/08/16 05:37:42;;;;;;;7.82;5.72;;;;;;;;;;5024446;28;20034;-45
2022/08/16 05:40:10;;;;;;;12.80;5.70;;;;;;;;;;5044007;28;20528;-45
2022/08/16 05:42:36;;;;;;;7.45;5.30;;;;;;;;;;5043467;28;20061;-47
2022/08/16 05:45:03;;;;;;;11.35;6.10;;;;;;;;;;5043441;28;20053;-45
2022/08/16 05:47:29;;;;;;;10.18;6.10;;;;;;;;;;5043882;28;20037;-46
2022/08/16 05:49:54;;;;;;;8.00;6.03;;;;;;;;;;5045929;28;20381;-45
2022/08/16 05:52:20;;;;;;;12.60;5.57;;;;;;;;;;5044083;28;20529;-45
2022/08/16 05:54:46;;;;;;;11.40;5.50;;;;;;;;;;5042303;28;20045;-45
2022/08/16 05:57:11;;;;;;;8.07;5.38;;;;;;;;;;5043853;28;20559;-49
2022/08/16 05:59:37;;;;;;;5.75;4.90;;;;;;;;;;5045787;28;20037;-45
2022/08/16 06:02:04;;;;;;;6.03;5.30;;;;;;;;;;5041769;28;20478;-47
2022/08/16 06:04:30;;;;;;;8.73;5.75;;;;;;;;;;5048415;28;20028;-45
2022/08/16 06:06:56;;;;;;;13.98;6.47;;;;;;;;;;5050770;28;20025;-50
2022/08/16 06:09:22;;;;;;;9.70;5.72;;;;;;;;;;5044462;28;20505;-45
2022/08/16 06:11:47;;;;;;;9.57;5.20;;;;;;;;;;5045292;28;20057;-47
2022/08/16 06:14:13;;;;;;;6.57;5.18;;;;;;;;;;5046281;28;20466;-49
2022/08/16 06:16:39;;;;;;;6.57;5.55;;;;;;;;;;5045883;28;20111;-46
2022/08/16 06:19:05;;;;;;;8.40;5.60;;;;;;;;;;5045124;28;20465;-48
2022/08/16 06:21:30;;;;;;;6.13;5.55;;;;;;;;;;5045450;28;20131;-46
2022/08/16 06:23:56;;;;;;;6.65;5.28;;;;;;;;;;5046339;28;20033;-47
2022/08/16 06:26:22;;;;;;;6.15;5.10;;;;;;;;;;5045861;28;20144;-48
2022/08/16 06:28:48;;;;;;;7.55;5.80;;;;;;;;;;5045793;28;20159;-45
2022/08/16 06:31:15;;;;;;;9.98;5.82;;;;;;;;;;5043579;28;20448;-46
2022/08/16 06:33:41;;;;;;;7.63;5.18;;;;;;;;;;5047894;28;20476;-45
2022/08/16 06:36:08;;;;;;;6.65;5.38;;;;;;;;;;5047787;28;20325;-45
2022/08/16 06:38:34;;;;;;;6.43;5.65;;;;;;;;;;5047319;28;20037;-51
2022/08/16 06:41:06;;;;;;;11.88;6.10;;;;;;;;;;5045083;28;20090;-46
2022/08/16 06:43:33;;;;;;;10.05;5.38;;;;;;;;;;5045844;28;20036;-51
2022/08/16 06:46:01;;;;;;;12.68;5.63;;;;;;;;;;5048920;28;20039;-46
2022/08/16 06:48:27;;;;;;;10.27;5.18;;;;;;;;;;5046328;28;20098;-45
2022/08/16 06:50:52;;;;;;;7.80;5.05;;;;;;;;;;5044841;28;20478;-46
2022/08/16 06:53:19;;;;;;;6.65;5.20;;;;;;;;;;5047774;28;20087;-46
2022/08/16 06:55:45;;;;;;;7.85;5.47;;;;;;;;;;5045589;28;20099;-45
2022/08/16 06:58:11;;;;;;;10.27;5.07;;;;;;;;;;5044880;28;20030;-46
2022/08/16 07:00:37;;;;;;;7.65;4.95;;;;;;;;;;5046321;28;20104;-47
2022/08/16 07:03:04;;;;;;;8.73;5.20;;;;;;;;;;5046703;28;20108;-50
2022/08/16 07:05:30;;;;;;;7.40;5.88;;;;;;;;;;5046716;28;20082;-45
2022/08/16 07:07:56;;;;;;;6.70;5.07;;;;;;;;;;5048428;28;20029;-47
2022/08/16 07:10:24;;;;;;;7.15;4.85;;;;;;;;;;5045071;28;20120;-47
2022/08/16 07:12:50;;;;;;;7.50;4.97;;;;;;;;;;5047466;28;20033;-45
2022/08/16 07:15:17;;;;;;;7.18;4.95;;;;;;;;;;5046203;28;20728;-45
2022/08/16 07:17:44;;;;;;;6.97;5.55;;;;;;;;;;5046508;28;20098;-45
2022/08/16 07:20:11;;;;;;;7.05;4.93;;;;;;;;;;5043203;28;20568;-49
2022/08/16 07:22:38;;;;;;;7.82;5.03;;;;;;;;;;5046377;28;20397;-46
2022/08/16 07:25:09;;;;;;;7.13;5.05;;;;;;;;;;5045917;28;20033;-45
2022/08/16 07:27:34;;;;;;;6.80;4.80;;;;;;;;;;5043574;28;20412;-46
2022/08/16 07:30:00;;;;;;;7.18;5.05;;;;;;;;;;5045547;28;20033;-45
2022/08/16 07:32:28;;;;;;;5.53;4.63;;;;;;;;;;5047105;28;20072;-45
2022/08/16 07:34:53;;;;;;;5.28;4.78;;;;;;;;;;5046467;28;20109;-46
2022/08/16 07:37:19;;;;;;;7.57;5.35;;;;;;;;;;5044911;28;20033;-46
2022/08/16 07:39:44;;;;;;;7.57;5.13;;;;;;;;;;5044463;28;20162;-45
2022/08/16 07:42:11;;;;;;;9.13;4.63;;;;;;;;;;5047969;28;20028;-46
2022/08/16 07:44:37;;;;;;;9.43;4.90;;;;;;;;;;5044094;28;20041;-45
2022/08/16 07:47:02;;;;;;;6.10;4.50;;;;;;;;;;5046136;28;20158;-48
2022/08/16 07:49:28;;;;;;;8.27;4.80;;;;;;;;;;5044828;28;20045;-45
2022/08/16 07:51:54;;;;;;;13.77;5.40;;;;;;;;;;5046367;28;20029;-49
2022/08/16 07:54:19;;;;;;;5.80;4.70;;;;;;;;;;5045439;28;20029;-45
2022/08/16 07:56:45;;;;;;;10.00;4.93;;;;;;;;;;5044445;28;20029;-47
2022/08/16 07:59:11;;;;;;;5.32;4.80;;;;;;;;;;5045796;28;20033;-50
2022/08/16 08:01:38;;;;;;;4.88;4.45;;;;;;;;;;5044618;28;20032;-50
2022/08/16 08:04:04;;;;;;;8.95;5.15;;;;;;;;;;5045272;28;21215;-46
2022/08/16 08:06:31;;;;;;;8.45;5.32;;;;;;;;;;5045058;28;20032;-52
2022/08/16 08:08:59;;;;;;;8.52;5.07;;;;;;;;;;5044867;28;20029;-50
2022/08/16 08:11:27;;;;;;;7.43;4.60;;;;;;;;;;5045828;28;20043;-52
2022/08/16 08:13:53;;;;;;;9.68;4.68;;;;;;;;;;5045804;28;20100;-53
2022/08/16 08:16:20;;;;;;;10.65;5.07;;;;;;;;;;5045998;28;20048;-50
2022/08/16 08:18:47;;;;;;;9.48;4.80;;;;;;;;;;5042964;28;20583;-49
2022/08/16 08:21:13;;;;;;;9.75;5.00;;;;;;;;;;5043378;28;20351;-52
2022/08/16 08:23:40;;;;;;;18.92;5.40;;;;;;;;;;5045468;28;20025;-48
2022/08/16 08:26:06;;;;;;;8.75;5.53;;;;;;;;;;5042272;28;20079;-47
2022/08/16 08:28:32;;;;;;;11.68;5.30;;;;;;;;;;5042000;28;20397;-52
2022/08/16 08:30:59;;;;;;;17.67;5.57;;;;;;;;;;5045355;28;20021;-50
2022/08/16 08:33:25;;;;;;;10.55;4.68;;;;;;;;;;5044914;28;20029;-47
2022/08/16 08:35:52;;;;;;;11.90;4.95;;;;;;;;;;5039597;28;20478;-48
2022/08/16 08:38:18;;;;;;;8.82;5.03;;;;;;;;;;5042853;28;20477;-47
2022/08/16 08:40:44;;;;;;;5.82;4.32;;;;;;;;;;5026267;28;20060;-50
2022/08/16 08:43:12;;;;;;;13.73;4.90;;;;;;;;;;5044844;28;20466;-48
2022/08/16 08:45:39;;;;;;;7.40;4.88;;;;;;;;;;5042957;28;20025;-52
2022/08/16 08:48:05;;;;;;;8.25;4.75;;;;;;;;;;5041048;28;20043;-47
2022/08/16 08:50:31;;;;;;;9.82;4.95;;;;;;;;;;5046035;28;20033;-50
2022/08/16 08:52:57;;;;;;;7.25;4.65;;;;;;;;;;5045589;28;20033;-50
2022/08/16 08:55:23;;;;;;;6.45;4.63;;;;;;;;;;5044870;28;20041;-46
2022/08/16 08:57:51;;;;;;;7.35;4.45;;;;;;;;;;5044087;28;20021;-45
2022/08/16 09:00:21;;;;;;;7.00;4.57;;;;;;;;;;5041060;28;20481;-47
2022/08/16 09:02:49;;;;;;;7.83;4.47;;;;;;;;;;5040463;28;20041;-46
2022/08/16 09:05:16;;;;;;;7.15;4.95;;;;;;;;;;5043953;28;20059;-46
2022/08/16 09:07:43;;;;;;;7.10;4.70;;;;;;;;;;5046872;28;20028;-46
2022/08/16 09:10:09;;;;;;;13.80;5.18;;;;;;;;;;5041644;28;20420;-47
2022/08/16 09:12:35;;;;;;;9.35;4.88;;;;;;;;;;5044165;28;20033;-46
2022/08/16 09:15:02;;;;;;;7.45;4.65;;;;;;;;;;5041718;28;20035;-46
2022/08/16 09:17:29;;;;;;;10.55;4.55;;;;;;;;;;5044989;28;20043;-45
2022/08/16 09:19:54;;;;;;;8.77;4.80;;;;;;;;;;5029741;28;20393;-45
2022/08/16 09:22:21;;;;;;;8.45;5.18;;;;;;;;;;5040394;28;20545;-46
2022/08/16 09:24:49;;;;;;;7.32;4.43;;;;;;;;;;5043749;28;20032;-46
2022/08/16 09:27:14;;;;;;;8.43;5.13;;;;;;;;;;5040170;28;20044;-46
2022/08/16 09:29:40;;;;;;;8.35;5.05;;;;;;;;;;5043066;28;20025;-48
2022/08/16 09:32:06;;;;;;;7.05;4.90;;;;;;;;;;5039731;28;20041;-47
2022/08/16 09:34:32;;;;;;;7.22;4.90;;;;;;;;;;5045130;28;20465;-45
2022/08/16 09:36:58;;;;;;;6.63;4.47;;;;;;;;;;5044157;28;20032;-45
2022/08/16 09:39:24;;;;;;;6.95;4.72;;;;;;;;;;5049224;28;20041;-45
2022/08/16 09:41:53;;;;;;;12.55;5.30;;;;;;;;;;5047919;28;20059;-45
2022/08/16 09:44:19;;;;;;;10.35;5.20;;;;;;;;;;5047759;28;20029;-45
2022/08/16 09:46:45;;;;;;;10.20;5.60;;;;;;;;;;5046616;28;20040;-45
2022/08/16 09:49:12;;;;;;;7.53;5.47;;;;;;;;;;5049308;28;20388;-46
2022/08/16 09:51:39;;;;;;;10.38;5.13;;;;;;;;;;5047630;28;20049;-46
2022/08/16 09:54:05;;;;;;;7.82;5.40;;;;;;;;;;5047043;28;20104;-47
2022/08/16 09:56:33;;;;;;;4.55;4.15;;;;;;;;;;5047197;28;20053;-47
2022/08/16 09:59:02;;;;;;;10.57;4.32;;;;;;;;;;5046784;28;20481;-45
2022/08/16 10:01:30;;;;;;;14.50;5.38;;;;;;;;;;5042843;28;20486;-47
2022/08/16 10:03:56;;;;;;;10.43;4.97;;;;;;;;;;5046383;28;20116;-46
2022/08/16 10:06:23;;;;;;;6.72;4.43;;;;;;;;;;5047557;28;20025;-47
2022/08/16 10:08:50;;;;;;;5.60;4.55;;;;;;;;;;5047529;28;20028;-45
2022/08/16 10:14:01;;;;;;;8.10;4.90;;;;;;;;;;5048083;28;20032;-45
2022/08/16 10:16:27;;;;;;;9.27;4.90;;;;;;;;;;5046561;28;20040;-48
2022/08/16 10:18:52;;;;;;;9.35;5.00;;;;;;;;;;5046829;28;20025;-48
2022/08/16 10:21:18;;;;;;;10.57;5.03;;;;;;;;;;5047475;28;20040;-46
2022/08/16 10:23:45;;;;;;;10.82;5.47;;;;;;;;;;5047853;28;20021;-45
2022/08/16 10:26:11;;;;;;;10.73;4.68;;;;;;;;;;5047738;28;20021;-46
2022/08/16 10:28:37;;;;;;;4.75;4.35;;;;;;;;;;5044885;28;20029;-46
2022/08/16 10:31:04;;;;;;;8.77;5.18;;;;;;;;;;5046245;28;20036;-50
2022/08/16 10:33:32;;;;;;;6.35;4.43;;;;;;;;;;5044502;28;20485;-46
2022/08/16 10:35:59;;;;;;;6.97;5.03;;;;;;;;;;5048197;28;20036;-46
2022/08/16 10:38:25;;;;;;;7.25;4.88;;;;;;;;;;5045120;28;20034;-45
2022/08/16 10:40:53;;;;;;;8.15;5.07;;;;;;;;;;5047318;28;20029;-46
2022/08/16 10:43:19;;;;;;;7.93;5.00;;;;;;;;;;5027817;28;21294;-46
2022/08/16 10:45:47;;;;;;;9.27;5.60;;;;;;;;;;5046306;28;20052;-46
2022/08/16 10:48:13;;;;;;;6.90;5.00;;;;;;;;;;5044335;28;20022;-45
2022/08/16 10:50:39;;;;;;;8.10;5.15;;;;;;;;;;5047040;28;20035;-45
2022/08/16 10:53:05;;;;;;;8.23;5.10;;;;;;;;;;5047251;28;20029;-45
2022/08/16 10:55:37;;;;;;;12.10;5.00;;;;;;;;;;5046506;28;20041;-45
2022/08/16 10:58:05;;;;;;;8.82;4.97;;;;;;;;;;5044534;28;20025;-45
2022/08/16 11:00:31;;;;;;;9.55;5.35;;;;;;;;;;5044252;28;20462;-49
2022/08/16 11:02:59;;;;;;;8.32;4.75;;;;;;;;;;5047458;28;20036;-49
2022/08/16 11:05:27;;;;;;;6.40;4.93;;;;;;;;;;5047089;28;20056;-45
2022/08/16 11:07:53;;;;;;;8.18;4.45;;;;;;;;;;5045916;28;20104;-47
2022/08/16 11:10:23;;;;;;;7.82;4.45;;;;;;;;;;5047181;28;20112;-47
2022/08/16 11:12:49;;;;;;;8.82;4.53;;;;;;;;;;5046448;28;20095;-44
2022/08/16 11:15:14;;;;;;;8.13;4.38;;;;;;;;;;5042910;28;20485;-53
2022/08/16 11:17:40;;;;;;;6.47;4.63;;;;;;;;;;5044713;28;20034;-45
2022/08/16 11:20:14;;;;;;;14.35;4.90;;;;;;;;;;5045783;28;20032;-46
2022/08/16 11:22:41;;;;;;;9.05;4.22;;;;;;;;;;5046330;28;20041;-45
2022/08/16 11:25:08;;;;;;;7.03;4.57;;;;;;;;;;5043953;28;20483;-45
2022/08/16 11:27:34;;;;;;;5.47;4.10;;;;;;;;;;5045917;28;20025;-46
2022/08/16 11:29:59;;;;;;;8.73;4.43;;;;;;;;;;5045844;28;20493;-46
2022/08/16 11:32:27;;;;;;;6.13;4.20;;;;;;;;;;5046372;28;20493;-45
2022/08/16 11:34:55;;;;;;;6.57;4.45;;;;;;;;;;5044384;28;20383;-47
2022/08/16 11:37:21;;;;;;;6.93;3.92;;;;;;;;;;5044242;28;20482;-45
2022/08/16 11:39:47;;;;;;;10.70;4.38;;;;;;;;;;5044364;28;20037;-45
2022/08/16 11:42:13;;;;;;;6.65;4.20;;;;;;;;;;5041337;28;20377;-47
2022/08/16 11:44:38;;;;;;;6.88;4.15;;;;;;;;;;5047472;28;20037;-45
2022/08/16 11:47:04;;;;;;;6.35;4.28;;;;;;;;;;5042744;28;20112;-47
2022/08/16 11:49:30;;;;;;;6.60;3.92;;;;;;;;;;5042371;28;20035;-46
2022/08/16 11:51:56;;;;;;;8.20;4.43;;;;;;;;;;5043982;28;20144;-45
2022/08/16 11:54:22;;;;;;;6.38;4.20;;;;;;;;;;5044935;28;20083;-46
2022/08/16 11:56:51;;;;;;;6.60;4.10;;;;;;;;;;5043891;28;20397;-46
2022/08/16 11:59:18;;;;;;;9.15;4.50;;;;;;;;;;5042185;28;20044;-45
2022/08/16 12:01:44;;;;;;;9.85;4.18;;;;;;;;;;5045736;28;20029;-45
2022/08/16 12:04:11;;;;;;;14.63;4.53;;;;;;;;;;5045092;28;20033;-46
2022/08/16 12:06:37;;;;;;;9.23;4.03;;;;;;;;;;5045212;28;20385;-45
2022/08/16 12:09:04;;;;;;;12.43;4.20;;;;;;;;;;5043201;28;20036;-45
2022/08/16 12:11:30;;;;;;;7.95;4.40;;;;;;;;;;5043256;28;20033;-48
2022/08/16 12:13:56;;;;;;;8.07;3.80;;;;;;;;;;5045303;28;20163;-46
2022/08/16 12:16:22;;;;;;;12.10;4.30;;;;;;;;;;5044058;28;20033;-47
2022/08/16 12:18:48;;;;;;;6.70;4.50;;;;;;;;;;5045679;28;20047;-45
2022/08/16 12:21:15;;;;;;;7.47;4.50;;;;;;;;;;5043993;28;20108;-49
2022/08/16 12:23:41;;;;;;;6.30;4.43;;;;;;;;;;5046095;28;20025;-45
2022/08/16 12:26:07;;;;;;;6.95;4.28;;;;;;;;;;5044709;28;20035;-45
2022/08/16 12:28:33;;;;;;;5.60;4.00;;;;;;;;;;5043835;28;20059;-48
2022/08/16 12:30:59;;;;;;;6.93;3.90;;;;;;;;;;5040391;28;20423;-46
2022/08/16 12:33:24;;;;;;;5.18;3.75;;;;;;;;;;5045982;28;20385;-45
2022/08/16 12:35:50;;;;;;;6.18;3.83;;;;;;;;;;5044675;28;20029;-45
2022/08/16 12:38:17;;;;;;;4.80;4.10;;;;;;;;;;5046040;28;20059;-45
2022/08/16 12:40:46;;;;;;;7.00;3.95;;;;;;;;;;5043950;28;20437;-48
2022/08/16 12:43:12;;;;;;;5.82;4.22;;;;;;;;;;5045527;28;20032;-47
2022/08/16 12:45:45;;;;;;;8.55;4.53;;;;;;;;;;5044340;28;20493;-45
2022/08/16 12:50:58;;;;;;;7.00;4.32;;;;;;;;;;5044309;28;20029;-46
2022/08/16 12:53:24;;;;;;;9.10;4.38;;;;;;;;;;5043532;28;20436;-47
2022/08/16 12:55:50;;;;;;;9.32;4.75;;;;;;;;;;5042801;28;20594;-45
2022/08/16 12:58:19;;;;;;;6.03;3.92;;;;;;;;;;5045373;28;20055;-48
2022/08/16 13:00:47;;;;;;;11.90;4.43;;;;;;;;;;5044080;28;20114;-47
2022/08/16 13:03:15;;;;;;;7.47;4.38;;;;;;;;;;5043280;28;20120;-48
2022/08/16 13:05:40;;;;;;;11.02;4.40;;;;;;;;;;5044472;28;20470;-47
2022/08/16 13:08:14;;;;;;;7.88;4.30;;;;;;;;;;5043796;28;20029;-46
2022/08/16 13:10:43;;;;;;;6.90;4.03;;;;;;;;;;5043100;28;20048;-45
2022/08/16 13:13:09;;;;;;;6.00;4.40;;;;;;;;;;5048594;28;20051;-46
2022/08/16 13:15:36;;;;;;;5.47;4.28;;;;;;;;;;5044935;28;20053;-46
2022/08/16 13:18:02;;;;;;;6.40;4.18;;;;;;;;;;5045754;28;20060;-45
2022/08/16 13:20:28;;;;;;;7.00;3.85;;;;;;;;;;5045500;28;20473;-45
2022/08/16 13:23:10;;;;;;;4.72;3.95;;;;;;;;;;5032944;28;20025;-48
2022/08/16 13:25:40;;;;;;;6.30;3.58;;;;;;;;;;5046760;28;20029;-46
2022/08/16 13:28:06;;;;;;;9.05;4.03;;;;;;;;;;5031523;28;20112;-46
2022/08/16 13:30:39;;;;;;;5.93;4.13;;;;;;;;;;5049656;28;20033;-45
2022/08/16 13:33:06;;;;;;;7.22;4.53;;;;;;;;;;5046480;28;20075;-47
2022/08/16 13:35:33;;;;;;;5.57;3.90;;;;;;;;;;5052874;28;20052;-45
2022/08/16 13:37:58;;;;;;;10.00;4.10;;;;;;;;;;5045076;28;20063;-45
2022/08/16 13:40:24;;;;;;;9.82;3.65;;;;;;;;;;5047872;28;20076;-45
2022/08/16 13:42:53;;;;;;;5.55;3.83;;;;;;;;;;5048518;28;20650;-45
2022/08/16 13:45:19;;;;;;;3.90;3.30;;;;;;;;;;5041685;28;20416;-46
2022/08/16 13:47:44;;;;;;;6.85;3.60;;;;;;;;;;5045272;28;20108;-48
2022/08/16 13:50:11;;;;;;;6.43;3.58;;;;;;;;;;5045544;28;20075;-46
2022/08/16 13:52:39;;;;;;;7.95;4.10;;;;;;;;;;5047669;28;20036;-45
2022/08/16 13:55:05;;;;;;;8.63;3.92;;;;;;;;;;5044862;28;20037;-50
2022/08/16 13:57:31;;;;;;;4.45;3.50;;;;;;;;;;5049842;28;20033;-45
2022/08/16 13:59:57;;;;;;;8.70;3.83;;;;;;;;;;5048078;28;20554;-48
2022/08/16 14:02:23;;;;;;;7.53;3.83;;;;;;;;;;5030690;28;20021;-47
2022/08/16 14:04:48;;;;;;;8.40;3.72;;;;;;;;;;5046473;28;20025;-45
2022/08/16 14:07:15;;;;;;;5.95;3.78;;;;;;;;;;5048996;28;20031;-49
2022/08/16 14:09:41;;;;;;;9.50;3.88;;;;;;;;;;5047731;28;20048;-46
2022/08/16 14:12:40;;;;;;;8.88;4.03;;;;;;;;;;5048220;28;20036;-48
2022/08/16 14:15:09;;;;;;;7.28;4.22;;;;;;;;;;4967553;28;20034;-45
2022/08/16 14:17:35;;;;;;;8.30;3.63;;;;;;;;;;4967535;28;20035;-46
2022/08/16 14:20:01;;;;;;;5.63;3.95;;;;;;;;;;4967459;28;20038;-47
2022/08/16 14:22:30;;;;;;;9.15;3.72;;;;;;;;;;4965636;28;20669;-46
2022/08/16 14:24:57;;;;;;;6.18;3.75;;;;;;;;;;4965089;28;20039;-48
2022/08/16 14:27:25;;;;;;;7.10;3.63;;;;;;;;;;4967104;28;20035;-45
2022/08/16 14:29:52;;;;;;;10.80;3.80;;;;;;;;;;4969251;28;20522;-45
2022/08/16 14:32:20;;;;;;;6.95;3.72;;;;;;;;;;4967800;28;20043;-48
2022/08/16 14:34:46;;;;;;;4.85;3.47;;;;;;;;;;4967219;28;20035;-45
2022/08/16 14:37:12;;;;;;;11.00;3.90;;;;;;;;;;4966763;28;20066;-48
2022/08/16 14:39:37;;;;;;;5.00;3.67;;;;;;;;;;4968447;28;20039;-44
2022/08/16 14:42:12;;;;;;;10.80;4.10;;;;;;;;;;4965681;28;21571;-47
2022/08/16 14:44:39;;;;;;;7.45;3.55;;;;;;;;;;4964965;28;20419;-49